sensor_id;sensor_type;location;lat;lon;timestamp;P1;durP1;ratioP1;P2;durP2;ratioP2
6358;SDS011;3212;51.460;11.868;2022-11-10T00:00:53;3.17;;;1.80;;
6358;SDS011;3212;51.460;11.868;2022-11-10T00:04:15;3.80;;;1.97;;
6358;SDS011;3212;51.460;11.868;2022-11-10T00:07:39;3.10;;;2.23;;
6358;SDS011;3212;51.460;11.868;2022-11-10T00:11:03;3.47;;;1.70;;
6358;SDS011;3212;51.460;11.868;2022-11-10T00:14:26;2.90;;;1.83;;
6358;SDS011;3212;51.460;11.868;2022-11-10T00:17:54;3.30;;;2.07;;
6358;SDS011;3212;51.460;11.868;2022-11-10T00:21:17;3.10;;;1.97;;
6358;SDS011;3212;51.460;11.868;2022-11-10T00:24:39;7.33;;;2.07;;
6358;SDS011;3212;51.460;11.868;2022-11-10T00:28:01;3.20;;;1.60;;
6358;SDS011;3212;51.460;11.868;2022-11-10T00:31:24;4.33;;;2.00;;
6358;SDS011;3212;51.460;11.868;2022-11-10T00:34:46;3.07;;;1.93;;
6358;SDS011;3212;51.460;11.868;2022-11-10T00:38:09;3.00;;;1.70;;
6358;SDS011;3212;51.460;11.868;2022-11-10T00:41:32;2.43;;;1.67;;
6358;SDS011;3212;51.460;11.868;2022-11-10T00:44:54;1.73;;;1.63;;
6358;SDS011;3212;51.460;11.868;2022-11-10T00:48:16;6.20;;;2.10;;
6358;SDS011;3212;51.460;11.868;2022-11-10T00:51:39;3.80;;;1.97;;
6358;SDS011;3212;51.460;11.868;2022-11-10T00:55:01;1.60;;;1.50;;
6358;SDS011;3212;51.460;11.868;2022-11-10T00:58:25;7.40;;;2.00;;
6358;SDS011;3212;51.460;11.868;2022-11-10T01:01:47;7.90;;;2.40;;
6358;SDS011;3212;51.460;11.868;2022-11-10T01:05:10;3.73;;;1.70;;
6358;SDS011;3212;51.460;11.868;2022-11-10T01:08:33;5.50;;;1.83;;
6358;SDS011;3212;51.460;11.868;2022-11-10T01:11:56;5.47;;;1.97;;
6358;SDS011;3212;51.460;11.868;2022-11-10T01:15:19;4.53;;;1.70;;
6358;SDS011;3212;51.460;11.868;2022-11-10T01:18:41;4.20;;;1.90;;
6358;SDS011;3212;51.460;11.868;2022-11-10T01:22:04;5.20;;;1.73;;
6358;SDS011;3212;51.460;11.868;2022-11-10T01:25:26;3.13;;;1.53;;
6358;SDS011;3212;51.460;11.868;2022-11-10T01:28:48;7.77;;;2.00;;
6358;SDS011;3212;51.460;11.868;2022-11-10T01:32:11;2.40;;;1.90;;
6358;SDS011;3212;51.460;11.868;2022-11-10T01:35:33;5.03;;;2.10;;
6358;SDS011;3212;51.460;11.868;2022-11-10T01:38:56;3.90;;;1.77;;
6358;SDS011;3212;51.460;11.868;2022-11-10T01:42:22;3.60;;;1.80;;
6358;SDS011;3212;51.460;11.868;2022-11-10T01:45:50;6.18;;;1.90;;
6358;SDS011;3212;51.460;11.868;2022-11-10T01:49:11;5.77;;;2.20;;
6358;SDS011;3212;51.460;11.868;2022-11-10T01:52:33;4.83;;;2.53;;
6358;SDS011;3212;51.460;11.868;2022-11-10T01:55:56;5.10;;;2.07;;
6358;SDS011;3212;51.460;11.868;2022-11-10T01:59:19;4.13;;;1.97;;
6358;SDS011;3212;51.460;11.868;2022-11-10T02:02:43;4.57;;;2.40;;
6358;SDS011;3212;51.460;11.868;2022-11-10T02:06:05;5.93;;;2.10;;
6358;SDS011;3212;51.460;11.868;2022-11-10T02:09:27;6.93;;;2.37;;
6358;SDS011;3212;51.460;11.868;2022-11-10T02:12:50;2.85;;;2.20;;
6358;SDS011;3212;51.460;11.868;2022-11-10T02:16:13;6.03;;;1.93;;
6358;SDS011;3212;51.460;11.868;2022-11-10T02:19:39;4.30;;;2.07;;
6358;SDS011;3212;51.460;11.868;2022-11-10T02:26:33;3.27;;;2.03;;
6358;SDS011;3212;51.460;11.868;2022-11-10T02:29:56;5.93;;;2.17;;
6358;SDS011;3212;51.460;11.868;2022-11-10T02:33:18;5.20;;;1.97;;
6358;SDS011;3212;51.460;11.868;2022-11-10T02:36:42;4.50;;;1.85;;
6358;SDS011;3212;51.460;11.868;2022-11-10T02:40:04;4.20;;;2.77;;
6358;SDS011;3212;51.460;11.868;2022-11-10T02:43:27;6.13;;;1.70;;
6358;SDS011;3212;51.460;11.868;2022-11-10T02:46:50;3.30;;;1.63;;
6358;SDS011;3212;51.460;11.868;2022-11-10T02:50:12;8.10;;;1.90;;
6358;SDS011;3212;51.460;11.868;2022-11-10T02:53:35;2.97;;;1.67;;
6358;SDS011;3212;51.460;11.868;2022-11-10T02:56:58;2.80;;;1.70;;
6358;SDS011;3212;51.460;11.868;2022-11-10T03:00:21;3.43;;;1.90;;
6358;SDS011;3212;51.460;11.868;2022-11-10T03:03:43;3.77;;;1.87;;
6358;SDS011;3212;51.460;11.868;2022-11-10T03:07:07;9.37;;;1.90;;
6358;SDS011;3212;51.460;11.868;2022-11-10T03:10:30;3.00;;;1.87;;
6358;SDS011;3212;51.460;11.868;2022-11-10T03:13:53;2.60;;;2.17;;
6358;SDS011;3212;51.460;11.868;2022-11-10T03:17:16;3.90;;;2.20;;
6358;SDS011;3212;51.460;11.868;2022-11-10T03:20:38;5.40;;;2.10;;
6358;SDS011;3212;51.460;11.868;2022-11-10T03:24:01;2.17;;;1.97;;
6358;SDS011;3212;51.460;11.868;2022-11-10T03:27:23;3.13;;;1.70;;
6358;SDS011;3212;51.460;11.868;2022-11-10T03:30:45;7.78;;;2.90;;
6358;SDS011;3212;51.460;11.868;2022-11-10T03:34:08;3.40;;;2.27;;
6358;SDS011;3212;51.460;11.868;2022-11-10T03:37:31;2.97;;;1.87;;
6358;SDS011;3212;51.460;11.868;2022-11-10T03:40:53;3.97;;;1.97;;
6358;SDS011;3212;51.460;11.868;2022-11-10T03:44:16;7.10;;;2.33;;
6358;SDS011;3212;51.460;11.868;2022-11-10T03:47:39;4.50;;;2.03;;
6358;SDS011;3212;51.460;11.868;2022-11-10T03:51:01;5.17;;;2.10;;
6358;SDS011;3212;51.460;11.868;2022-11-10T03:54:24;3.70;;;2.23;;
6358;SDS011;3212;51.460;11.868;2022-11-10T03:57:46;7.40;;;2.20;;
6358;SDS011;3212;51.460;11.868;2022-11-10T04:01:09;6.33;;;2.40;;
6358;SDS011;3212;51.460;11.868;2022-11-10T04:04:32;9.23;;;1.90;;
6358;SDS011;3212;51.460;11.868;2022-11-10T04:08:00;4.47;;;2.20;;
6358;SDS011;3212;51.460;11.868;2022-11-10T04:11:29;3.50;;;1.90;;
6358;SDS011;3212;51.460;11.868;2022-11-10T04:14:56;4.63;;;2.10;;
6358;SDS011;3212;51.460;11.868;2022-11-10T04:18:38;3.70;;;2.10;;
6358;SDS011;3212;51.460;11.868;2022-11-10T04:22:01;5.30;;;1.77;;
6358;SDS011;3212;51.460;11.868;2022-11-10T04:25:24;2.83;;;1.80;;
6358;SDS011;3212;51.460;11.868;2022-11-10T04:28:47;4.60;;;2.03;;
6358;SDS011;3212;51.460;11.868;2022-11-10T04:32:09;4.40;;;1.90;;
6358;SDS011;3212;51.460;11.868;2022-11-10T04:35:32;4.07;;;1.90;;
6358;SDS011;3212;51.460;11.868;2022-11-10T04:38:55;7.03;;;2.10;;
6358;SDS011;3212;51.460;11.868;2022-11-10T04:42:17;5.43;;;2.20;;
6358;SDS011;3212;51.460;11.868;2022-11-10T04:45:39;3.50;;;2.23;;
6358;SDS011;3212;51.460;11.868;2022-11-10T04:49:03;2.30;;;1.73;;
6358;SDS011;3212;51.460;11.868;2022-11-10T04:52:25;7.13;;;1.93;;
6358;SDS011;3212;51.460;11.868;2022-11-10T04:55:48;8.07;;;2.00;;
6358;SDS011;3212;51.460;11.868;2022-11-10T04:59:10;3.77;;;2.10;;
6358;SDS011;3212;51.460;11.868;2022-11-10T05:02:33;3.57;;;2.17;;
6358;SDS011;3212;51.460;11.868;2022-11-10T05:05:56;4.30;;;2.40;;
6358;SDS011;3212;51.460;11.868;2022-11-10T05:09:19;5.60;;;1.97;;
6358;SDS011;3212;51.460;11.868;2022-11-10T05:12:42;8.90;;;2.10;;
6358;SDS011;3212;51.460;11.868;2022-11-10T05:16:05;11.33;;;2.20;;
6358;SDS011;3212;51.460;11.868;2022-11-10T05:19:28;2.67;;;1.90;;
6358;SDS011;3212;51.460;11.868;2022-11-10T05:22:51;3.60;;;2.40;;
6358;SDS011;3212;51.460;11.868;2022-11-10T05:26:19;2.60;;;1.87;;
6358;SDS011;3212;51.460;11.868;2022-11-10T05:29:41;5.87;;;2.10;;
6358;SDS011;3212;51.460;11.868;2022-11-10T05:33:04;7.87;;;2.27;;
6358;SDS011;3212;51.460;11.868;2022-11-10T05:36:26;4.90;;;2.10;;
6358;SDS011;3212;51.460;11.868;2022-11-10T05:39:49;3.60;;;1.80;;
6358;SDS011;3212;51.460;11.868;2022-11-10T05:46:41;6.67;;;1.80;;
6358;SDS011;3212;51.460;11.868;2022-11-10T05:50:04;5.67;;;2.00;;
6358;SDS011;3212;51.460;11.868;2022-11-10T05:53:27;4.90;;;2.23;;
6358;SDS011;3212;51.460;11.868;2022-11-10T05:56:50;4.17;;;2.10;;
6358;SDS011;3212;51.460;11.868;2022-11-10T06:00:14;5.03;;;2.10;;
6358;SDS011;3212;51.460;11.868;2022-11-10T06:03:37;7.20;;;2.10;;
6358;SDS011;3212;51.460;11.868;2022-11-10T06:06:59;4.57;;;2.20;;
6358;SDS011;3212;51.460;11.868;2022-11-10T06:10:23;5.50;;;2.00;;
6358;SDS011;3212;51.460;11.868;2022-11-10T06:13:45;6.20;;;2.23;;
6358;SDS011;3212;51.460;11.868;2022-11-10T06:17:07;2.80;;;1.87;;
6358;SDS011;3212;51.460;11.868;2022-11-10T06:20:31;4.43;;;2.30;;
6358;SDS011;3212;51.460;11.868;2022-11-10T06:23:54;5.97;;;2.43;;
6358;SDS011;3212;51.460;11.868;2022-11-10T06:27:17;4.47;;;2.77;;
6358;SDS011;3212;51.460;11.868;2022-11-10T06:30:39;5.78;;;2.67;;
6358;SDS011;3212;51.460;11.868;2022-11-10T06:34:02;4.10;;;2.13;;
6358;SDS011;3212;51.460;11.868;2022-11-10T06:37:24;4.53;;;2.30;;
6358;SDS011;3212;51.460;11.868;2022-11-10T06:40:47;4.40;;;2.27;;
6358;SDS011;3212;51.460;11.868;2022-11-10T06:44:10;8.63;;;2.07;;
6358;SDS011;3212;51.460;11.868;2022-11-10T06:47:33;4.18;;;2.05;;
6358;SDS011;3212;51.460;11.868;2022-11-10T06:50:59;5.27;;;2.10;;
6358;SDS011;3212;51.460;11.868;2022-11-10T06:54:21;5.70;;;1.87;;
6358;SDS011;3212;51.460;11.868;2022-11-10T06:57:44;4.13;;;2.30;;
6358;SDS011;3212;51.460;11.868;2022-11-10T07:01:06;6.40;;;2.90;;
6358;SDS011;3212;51.460;11.868;2022-11-10T07:04:29;6.70;;;3.00;;
6358;SDS011;3212;51.460;11.868;2022-11-10T07:07:51;5.20;;;2.40;;
6358;SDS011;3212;51.460;11.868;2022-11-10T07:11:14;9.63;;;2.80;;
6358;SDS011;3212;51.460;11.868;2022-11-10T07:14:38;6.90;;;2.47;;
6358;SDS011;3212;51.460;11.868;2022-11-10T07:18:06;7.17;;;2.67;;
6358;SDS011;3212;51.460;11.868;2022-11-10T07:21:28;4.87;;;2.30;;
6358;SDS011;3212;51.460;11.868;2022-11-10T07:24:51;4.03;;;2.50;;
6358;SDS011;3212;51.460;11.868;2022-11-10T07:28:14;5.40;;;2.20;;
6358;SDS011;3212;51.460;11.868;2022-11-10T07:31:36;5.63;;;2.20;;
6358;SDS011;3212;51.460;11.868;2022-11-10T07:34:59;4.33;;;2.30;;
6358;SDS011;3212;51.460;11.868;2022-11-10T07:38:21;3.67;;;2.00;;
6358;SDS011;3212;51.460;11.868;2022-11-10T07:41:43;6.20;;;2.33;;
6358;SDS011;3212;51.460;11.868;2022-11-10T07:45:06;5.93;;;2.23;;
6358;SDS011;3212;51.460;11.868;2022-11-10T07:48:30;5.37;;;2.03;;
6358;SDS011;3212;51.460;11.868;2022-11-10T07:51:52;7.03;;;2.40;;
6358;SDS011;3212;51.460;11.868;2022-11-10T07:55:16;9.17;;;2.27;;
6358;SDS011;3212;51.460;11.868;2022-11-10T07:58:38;6.00;;;2.10;;
6358;SDS011;3212;51.460;11.868;2022-11-10T08:02:00;5.60;;;2.20;;
6358;SDS011;3212;51.460;11.868;2022-11-10T08:05:23;6.33;;;2.50;;
6358;SDS011;3212;51.460;11.868;2022-11-10T08:08:45;6.00;;;2.27;;
6358;SDS011;3212;51.460;11.868;2022-11-10T08:12:08;2.60;;;1.77;;
6358;SDS011;3212;51.460;11.868;2022-11-10T08:15:31;3.83;;;2.45;;
6358;SDS011;3212;51.460;11.868;2022-11-10T08:18:54;3.97;;;2.00;;
6358;SDS011;3212;51.460;11.868;2022-11-10T08:22:17;4.63;;;2.27;;
6358;SDS011;3212;51.460;11.868;2022-11-10T08:25:40;4.87;;;2.00;;
6358;SDS011;3212;51.460;11.868;2022-11-10T08:29:02;7.93;;;2.03;;
6358;SDS011;3212;51.460;11.868;2022-11-10T08:32:25;9.17;;;3.03;;
6358;SDS011;3212;51.460;11.868;2022-11-10T08:35:48;6.43;;;2.33;;
6358;SDS011;3212;51.460;11.868;2022-11-10T08:39:10;6.00;;;2.20;;
6358;SDS011;3212;51.460;11.868;2022-11-10T08:42:33;5.33;;;2.03;;
6358;SDS011;3212;51.460;11.868;2022-11-10T08:45:55;4.17;;;2.20;;
6358;SDS011;3212;51.460;11.868;2022-11-10T08:49:18;6.27;;;1.97;;
6358;SDS011;3212;51.460;11.868;2022-11-10T08:52:41;4.17;;;1.93;;
6358;SDS011;3212;51.460;11.868;2022-11-10T08:56:04;3.87;;;2.00;;
6358;SDS011;3212;51.460;11.868;2022-11-10T08:59:26;4.63;;;2.17;;
6358;SDS011;3212;51.460;11.868;2022-11-10T09:02:49;3.83;;;1.90;;
6358;SDS011;3212;51.460;11.868;2022-11-10T09:06:11;4.00;;;2.03;;
6358;SDS011;3212;51.460;11.868;2022-11-10T09:09:34;4.17;;;2.13;;
6358;SDS011;3212;51.460;11.868;2022-11-10T09:12:58;5.17;;;1.97;;
6358;SDS011;3212;51.460;11.868;2022-11-10T09:16:19;7.30;;;2.30;;
6358;SDS011;3212;51.460;11.868;2022-11-10T09:19:43;7.57;;;2.23;;
6358;SDS011;3212;51.460;11.868;2022-11-10T09:23:06;4.60;;;2.20;;
6358;SDS011;3212;51.460;11.868;2022-11-10T09:26:27;6.13;;;2.07;;
6358;SDS011;3212;51.460;11.868;2022-11-10T09:29:50;3.30;;;1.80;;
6358;SDS011;3212;51.460;11.868;2022-11-10T09:33:18;6.80;;;2.13;;
6358;SDS011;3212;51.460;11.868;2022-11-10T09:36:40;4.97;;;2.00;;
6358;SDS011;3212;51.460;11.868;2022-11-10T09:40:03;5.97;;;2.43;;
6358;SDS011;3212;51.460;11.868;2022-11-10T09:43:30;4.57;;;2.00;;
6358;SDS011;3212;51.460;11.868;2022-11-10T09:46:51;5.93;;;1.93;;
6358;SDS011;3212;51.460;11.868;2022-11-10T09:50:26;3.60;;;2.10;;
6358;SDS011;3212;51.460;11.868;2022-11-10T09:53:55;8.90;;;2.80;;
6358;SDS011;3212;51.460;11.868;2022-11-10T09:57:17;6.47;;;2.27;;
6358;SDS011;3212;51.460;11.868;2022-11-10T10:00:39;4.77;;;2.10;;
6358;SDS011;3212;51.460;11.868;2022-11-10T10:04:11;5.30;;;2.30;;
6358;SDS011;3212;51.460;11.868;2022-11-10T10:07:37;4.20;;;2.07;;
6358;SDS011;3212;51.460;11.868;2022-11-10T10:11:12;3.53;;;1.83;;
6358;SDS011;3212;51.460;11.868;2022-11-10T10:18:28;5.23;;;2.10;;
6358;SDS011;3212;51.460;11.868;2022-11-10T10:22:02;6.60;;;1.93;;
6358;SDS011;3212;51.460;11.868;2022-11-10T10:25:22;7.97;;;2.27;;
6358;SDS011;3212;51.460;11.868;2022-11-10T10:28:46;3.10;;;1.70;;
6358;SDS011;3212;51.460;11.868;2022-11-10T10:32:10;6.47;;;2.20;;
6358;SDS011;3212;51.460;11.868;2022-11-10T10:35:32;3.97;;;1.87;;
6358;SDS011;3212;51.460;11.868;2022-11-10T10:38:56;8.87;;;2.47;;
6358;SDS011;3212;51.460;11.868;2022-11-10T10:49:25;2.93;;;2.03;;
6358;SDS011;3212;51.460;11.868;2022-11-10T10:56:27;5.30;;;2.03;;
6358;SDS011;3212;51.460;11.868;2022-11-10T10:59:49;4.00;;;2.37;;
6358;SDS011;3212;51.460;11.868;2022-11-10T11:03:20;8.33;;;3.57;;
6358;SDS011;3212;51.460;11.868;2022-11-10T11:06:41;7.33;;;2.37;;
6358;SDS011;3212;51.460;11.868;2022-11-10T11:13:42;4.67;;;2.23;;
6358;SDS011;3212;51.460;11.868;2022-11-10T11:17:12;8.80;;;2.20;;
6358;SDS011;3212;51.460;11.868;2022-11-10T11:20:48;5.43;;;2.47;;
6358;SDS011;3212;51.460;11.868;2022-11-10T11:24:17;6.30;;;2.33;;
6358;SDS011;3212;51.460;11.868;2022-11-10T11:27:47;6.57;;;2.97;;
6358;SDS011;3212;51.460;11.868;2022-11-10T11:31:15;4.13;;;2.43;;
6358;SDS011;3212;51.460;11.868;2022-11-10T11:34:43;5.00;;;2.20;;
6358;SDS011;3212;51.460;11.868;2022-11-10T11:38:12;4.87;;;2.17;;
6358;SDS011;3212;51.460;11.868;2022-11-10T11:41:37;7.77;;;2.13;;
6358;SDS011;3212;51.460;11.868;2022-11-10T11:48:49;6.60;;;2.30;;
6358;SDS011;3212;51.460;11.868;2022-11-10T11:52:14;6.23;;;2.43;;
6358;SDS011;3212;51.460;11.868;2022-11-10T11:55:48;5.87;;;1.83;;
6358;SDS011;3212;51.460;11.868;2022-11-10T12:02:52;3.50;;;1.80;;
6358;SDS011;3212;51.460;11.868;2022-11-10T12:06:17;3.23;;;1.70;;
6358;SDS011;3212;51.460;11.868;2022-11-10T12:09:41;5.77;;;2.20;;
6358;SDS011;3212;51.460;11.868;2022-11-10T12:13:09;7.93;;;2.10;;
6358;SDS011;3212;51.460;11.868;2022-11-10T12:16:38;3.17;;;1.83;;
6358;SDS011;3212;51.460;11.868;2022-11-10T12:20:11;9.57;;;3.40;;
6358;SDS011;3212;51.460;11.868;2022-11-10T12:23:32;4.50;;;1.97;;
6358;SDS011;3212;51.460;11.868;2022-11-10T12:26:59;6.03;;;1.90;;
6358;SDS011;3212;51.460;11.868;2022-11-10T12:30:33;2.13;;;1.50;;
6358;SDS011;3212;51.460;11.868;2022-11-10T12:33:58;6.57;;;1.93;;
6358;SDS011;3212;51.460;11.868;2022-11-10T12:37:23;3.00;;;1.90;;
6358;SDS011;3212;51.460;11.868;2022-11-10T12:40:47;3.90;;;2.10;;
6358;SDS011;3212;51.460;11.868;2022-11-10T12:44:15;8.30;;;2.30;;
6358;SDS011;3212;51.460;11.868;2022-11-10T12:47:38;6.10;;;2.03;;
6358;SDS011;3212;51.460;11.868;2022-11-10T12:51:09;6.27;;;2.50;;
6358;SDS011;3212;51.460;11.868;2022-11-10T12:54:35;4.87;;;2.83;;
6358;SDS011;3212;51.460;11.868;2022-11-10T12:57:58;3.58;;;2.12;;
6358;SDS011;3212;51.460;11.868;2022-11-10T13:01:21;7.87;;;2.50;;
6358;SDS011;3212;51.460;11.868;2022-11-10T13:04:43;9.67;;;2.70;;
6358;SDS011;3212;51.460;11.868;2022-11-10T13:08:10;5.67;;;2.10;;
6358;SDS011;3212;51.460;11.868;2022-11-10T13:11:35;4.30;;;2.17;;
6358;SDS011;3212;51.460;11.868;2022-11-10T13:14:57;3.57;;;1.73;;
6358;SDS011;3212;51.460;11.868;2022-11-10T13:18:23;7.47;;;2.50;;
6358;SDS011;3212;51.460;11.868;2022-11-10T13:22:02;6.33;;;2.00;;
6358;SDS011;3212;51.460;11.868;2022-11-10T13:32:40;5.53;;;2.23;;
6358;SDS011;3212;51.460;11.868;2022-11-10T13:36:04;5.50;;;1.60;;
6358;SDS011;3212;51.460;11.868;2022-11-10T13:39:29;4.03;;;1.90;;
6358;SDS011;3212;51.460;11.868;2022-11-10T13:46:35;2.40;;;1.40;;
6358;SDS011;3212;51.460;11.868;2022-11-10T13:57:15;4.30;;;1.87;;
6358;SDS011;3212;51.460;11.868;2022-11-10T14:00:48;12.82;;;2.12;;
6358;SDS011;3212;51.460;11.868;2022-11-10T14:04:35;5.30;;;1.60;;
6358;SDS011;3212;51.460;11.868;2022-11-10T14:07:40;5.43;;;2.00;;
6358;SDS011;3212;51.460;11.868;2022-11-10T14:11:02;4.07;;;1.50;;
6358;SDS011;3212;51.460;11.868;2022-11-10T14:14:26;4.83;;;2.00;;
6358;SDS011;3212;51.460;11.868;2022-11-10T14:17:51;4.40;;;1.50;;
6358;SDS011;3212;51.460;11.868;2022-11-10T14:21:19;6.93;;;2.10;;
6358;SDS011;3212;51.460;11.868;2022-11-10T14:24:36;5.23;;;1.80;;
6358;SDS011;3212;51.460;11.868;2022-11-10T14:27:59;3.93;;;2.13;;
6358;SDS011;3212;51.460;11.868;2022-11-10T14:31:22;5.87;;;2.10;;
6358;SDS011;3212;51.460;11.868;2022-11-10T14:34:48;9.13;;;1.90;;
6358;SDS011;3212;51.460;11.868;2022-11-10T14:38:15;3.13;;;1.97;;
6358;SDS011;3212;51.460;11.868;2022-11-10T14:41:46;4.67;;;1.83;;
6358;SDS011;3212;51.460;11.868;2022-11-10T14:45:16;6.57;;;2.00;;
6358;SDS011;3212;51.460;11.868;2022-11-10T14:48:39;6.60;;;1.80;;
6358;SDS011;3212;51.460;11.868;2022-11-10T14:52:01;6.10;;;2.90;;
6358;SDS011;3212;51.460;11.868;2022-11-10T14:55:25;5.43;;;1.80;;
6358;SDS011;3212;51.460;11.868;2022-11-10T14:58:46;6.30;;;2.17;;
6358;SDS011;3212;51.460;11.868;2022-11-10T15:02:09;7.43;;;2.00;;
6358;SDS011;3212;51.460;11.868;2022-11-10T15:05:32;5.10;;;1.80;;
6358;SDS011;3212;51.460;11.868;2022-11-10T15:08:54;7.50;;;2.10;;
6358;SDS011;3212;51.460;11.868;2022-11-10T15:12:18;5.30;;;1.67;;
6358;SDS011;3212;51.460;11.868;2022-11-10T15:15:40;3.90;;;1.93;;
6358;SDS011;3212;51.460;11.868;2022-11-10T15:22:38;5.75;;;1.90;;
6358;SDS011;3212;51.460;11.868;2022-11-10T15:26:03;3.80;;;2.10;;
6358;SDS011;3212;51.460;11.868;2022-11-10T15:29:25;6.50;;;2.37;;
6358;SDS011;3212;51.460;11.868;2022-11-10T15:32:48;3.80;;;2.33;;
6358;SDS011;3212;51.460;11.868;2022-11-10T15:36:14;6.20;;;2.10;;
6358;SDS011;3212;51.460;11.868;2022-11-10T15:39:36;4.57;;;2.00;;
6358;SDS011;3212;51.460;11.868;2022-11-10T15:46:34;6.30;;;2.10;;
6358;SDS011;3212;51.460;11.868;2022-11-10T15:49:56;5.63;;;1.77;;
6358;SDS011;3212;51.460;11.868;2022-11-10T15:53:24;4.40;;;2.00;;
6358;SDS011;3212;51.460;11.868;2022-11-10T15:56:45;9.20;;;2.50;;
6358;SDS011;3212;51.460;11.868;2022-11-10T16:00:10;4.40;;;2.73;;
6358;SDS011;3212;51.460;11.868;2022-11-10T16:03:31;5.03;;;3.00;;
6358;SDS011;3212;51.460;11.868;2022-11-10T16:06:54;7.83;;;2.70;;
6358;SDS011;3212;51.460;11.868;2022-11-10T16:10:16;3.63;;;1.93;;
6358;SDS011;3212;51.460;11.868;2022-11-10T16:13:41;8.53;;;2.37;;
6358;SDS011;3212;51.460;11.868;2022-11-10T16:17:03;6.83;;;3.13;;
6358;SDS011;3212;51.460;11.868;2022-11-10T16:20:26;12.20;;;2.80;;
6358;SDS011;3212;51.460;11.868;2022-11-10T16:23:50;8.00;;;2.80;;
6358;SDS011;3212;51.460;11.868;2022-11-10T16:27:12;6.03;;;2.70;;
6358;SDS011;3212;51.460;11.868;2022-11-10T16:30:35;8.80;;;2.40;;
6358;SDS011;3212;51.460;11.868;2022-11-10T16:33:58;12.10;;;2.57;;
6358;SDS011;3212;51.460;11.868;2022-11-10T16:37:21;4.43;;;2.30;;
6358;SDS011;3212;51.460;11.868;2022-11-10T16:40:51;9.75;;;2.60;;
6358;SDS011;3212;51.460;11.868;2022-11-10T16:44:11;8.43;;;2.60;;
6358;SDS011;3212;51.460;11.868;2022-11-10T16:47:32;15.00;;;4.03;;
6358;SDS011;3212;51.460;11.868;2022-11-10T16:50:56;15.37;;;4.47;;
6358;SDS011;3212;51.460;11.868;2022-11-10T16:54:19;8.10;;;3.50;;
6358;SDS011;3212;51.460;11.868;2022-11-10T16:57:41;11.23;;;2.80;;
6358;SDS011;3212;51.460;11.868;2022-11-10T17:01:04;5.43;;;2.90;;
6358;SDS011;3212;51.460;11.868;2022-11-10T17:04:27;8.97;;;2.57;;
6358;SDS011;3212;51.460;11.868;2022-11-10T17:07:50;6.70;;;2.60;;
6358;SDS011;3212;51.460;11.868;2022-11-10T17:11:13;11.63;;;2.87;;
6358;SDS011;3212;51.460;11.868;2022-11-10T17:14:35;5.80;;;2.07;;
6358;SDS011;3212;51.460;11.868;2022-11-10T17:17:58;4.60;;;2.90;;
6358;SDS011;3212;51.460;11.868;2022-11-10T17:21:21;8.00;;;2.87;;
6358;SDS011;3212;51.460;11.868;2022-11-10T17:24:44;7.50;;;3.23;;
6358;SDS011;3212;51.460;11.868;2022-11-10T17:28:08;6.53;;;2.70;;
6358;SDS011;3212;51.460;11.868;2022-11-10T17:31:30;8.77;;;3.33;;
6358;SDS011;3212;51.460;11.868;2022-11-10T17:34:53;7.70;;;2.37;;
6358;SDS011;3212;51.460;11.868;2022-11-10T17:41:57;8.83;;;3.60;;
6358;SDS011;3212;51.460;11.868;2022-11-10T17:45:23;14.00;;;3.40;;
6358;SDS011;3212;51.460;11.868;2022-11-10T17:48:45;7.73;;;3.50;;
6358;SDS011;3212;51.460;11.868;2022-11-10T17:52:08;11.77;;;5.90;;
6358;SDS011;3212;51.460;11.868;2022-11-10T17:55:34;10.70;;;5.33;;
6358;SDS011;3212;51.460;11.868;2022-11-10T17:58:56;12.23;;;5.10;;
6358;SDS011;3212;51.460;11.868;2022-11-10T18:02:19;5.77;;;4.33;;
6358;SDS011;3212;51.460;11.868;2022-11-10T18:05:42;7.23;;;3.00;;
6358;SDS011;3212;51.460;11.868;2022-11-10T18:09:04;4.72;;;2.55;;
6358;SDS011;3212;51.460;11.868;2022-11-10T18:12:26;14.02;;;2.62;;
6358;SDS011;3212;51.460;11.868;2022-11-10T18:15:49;5.57;;;2.80;;
6358;SDS011;3212;51.460;11.868;2022-11-10T18:19:11;10.07;;;2.47;;
6358;SDS011;3212;51.460;11.868;2022-11-10T18:22:34;6.63;;;2.60;;
6358;SDS011;3212;51.460;11.868;2022-11-10T18:26:01;8.50;;;2.97;;
6358;SDS011;3212;51.460;11.868;2022-11-10T18:29:23;9.20;;;2.90;;
6358;SDS011;3212;51.460;11.868;2022-11-10T18:32:46;3.23;;;2.50;;
6358;SDS011;3212;51.460;11.868;2022-11-10T18:36:08;3.90;;;2.33;;
6358;SDS011;3212;51.460;11.868;2022-11-10T18:39:31;3.63;;;2.20;;
6358;SDS011;3212;51.460;11.868;2022-11-10T18:42:55;4.40;;;2.60;;
6358;SDS011;3212;51.460;11.868;2022-11-10T18:46:18;4.20;;;2.63;;
6358;SDS011;3212;51.460;11.868;2022-11-10T18:49:40;7.80;;;2.53;;
6358;SDS011;3212;51.460;11.868;2022-11-10T18:53:04;4.97;;;2.97;;
6358;SDS011;3212;51.460;11.868;2022-11-10T18:56:26;5.40;;;2.93;;
6358;SDS011;3212;51.460;11.868;2022-11-10T18:59:49;9.53;;;2.97;;
6358;SDS011;3212;51.460;11.868;2022-11-10T19:03:12;5.13;;;3.03;;
6358;SDS011;3212;51.460;11.868;2022-11-10T19:06:34;11.40;;;4.17;;
6358;SDS011;3212;51.460;11.868;2022-11-10T19:09:56;6.73;;;2.87;;
6358;SDS011;3212;51.460;11.868;2022-11-10T19:13:20;19.23;;;5.70;;
6358;SDS011;3212;51.460;11.868;2022-11-10T19:16:42;3.53;;;2.30;;
6358;SDS011;3212;51.460;11.868;2022-11-10T19:20:05;5.40;;;2.50;;
6358;SDS011;3212;51.460;11.868;2022-11-10T19:23:28;4.90;;;2.40;;
6358;SDS011;3212;51.460;11.868;2022-11-10T19:26:51;7.03;;;2.97;;
6358;SDS011;3212;51.460;11.868;2022-11-10T19:30:15;7.63;;;2.83;;
6358;SDS011;3212;51.460;11.868;2022-11-10T19:33:38;9.00;;;2.90;;
6358;SDS011;3212;51.460;11.868;2022-11-10T19:36:59;7.80;;;3.10;;
6358;SDS011;3212;51.460;11.868;2022-11-10T19:40:24;7.30;;;3.40;;
6358;SDS011;3212;51.460;11.868;2022-11-10T19:43:47;5.80;;;2.70;;
6358;SDS011;3212;51.460;11.868;2022-11-10T19:47:10;5.63;;;2.90;;
6358;SDS011;3212;51.460;11.868;2022-11-10T19:50:33;7.03;;;2.87;;
6358;SDS011;3212;51.460;11.868;2022-11-10T19:53:56;7.43;;;3.00;;
6358;SDS011;3212;51.460;11.868;2022-11-10T19:57:21;10.02;;;2.90;;
6358;SDS011;3212;51.460;11.868;2022-11-10T20:00:45;8.40;;;2.60;;
6358;SDS011;3212;51.460;11.868;2022-11-10T20:04:07;8.30;;;2.73;;
6358;SDS011;3212;51.460;11.868;2022-11-10T20:07:30;7.60;;;3.00;;
6358;SDS011;3212;51.460;11.868;2022-11-10T20:10:59;6.83;;;3.50;;
6358;SDS011;3212;51.460;11.868;2022-11-10T20:14:21;7.07;;;3.75;;
6358;SDS011;3212;51.460;11.868;2022-11-10T20:17:44;5.57;;;2.77;;
6358;SDS011;3212;51.460;11.868;2022-11-10T20:24:36;5.80;;;3.53;;
6358;SDS011;3212;51.460;11.868;2022-11-10T20:28:00;5.67;;;3.03;;
6358;SDS011;3212;51.460;11.868;2022-11-10T20:31:24;4.50;;;3.00;;
6358;SDS011;3212;51.460;11.868;2022-11-10T20:34:45;6.10;;;3.20;;
6358;SDS011;3212;51.460;11.868;2022-11-10T20:38:08;5.32;;;3.00;;
6358;SDS011;3212;51.460;11.868;2022-11-10T20:41:30;8.97;;;3.03;;
6358;SDS011;3212;51.460;11.868;2022-11-10T20:44:53;4.13;;;2.87;;
6358;SDS011;3212;51.460;11.868;2022-11-10T20:48:15;8.65;;;3.42;;
6358;SDS011;3212;51.460;11.868;2022-11-10T20:51:38;5.10;;;3.10;;
6358;SDS011;3212;51.460;11.868;2022-11-10T20:55:00;6.87;;;2.90;;
6358;SDS011;3212;51.460;11.868;2022-11-10T20:58:24;8.10;;;3.90;;
6358;SDS011;3212;51.460;11.868;2022-11-10T21:01:47;7.97;;;2.77;;
6358;SDS011;3212;51.460;11.868;2022-11-10T21:05:09;8.30;;;4.10;;
6358;SDS011;3212;51.460;11.868;2022-11-10T21:08:33;10.37;;;3.17;;
6358;SDS011;3212;51.460;11.868;2022-11-10T21:11:55;6.50;;;2.97;;
6358;SDS011;3212;51.460;11.868;2022-11-10T21:15:24;6.33;;;3.03;;
6358;SDS011;3212;51.460;11.868;2022-11-10T21:18:46;4.93;;;3.00;;
6358;SDS011;3212;51.460;11.868;2022-11-10T21:22:09;7.90;;;4.00;;
6358;SDS011;3212;51.460;11.868;2022-11-10T21:25:32;5.27;;;3.10;;
6358;SDS011;3212;51.460;11.868;2022-11-10T21:28:54;6.80;;;2.93;;
6358;SDS011;3212;51.460;11.868;2022-11-10T21:32:18;6.53;;;2.60;;
6358;SDS011;3212;51.460;11.868;2022-11-10T21:35:42;6.37;;;3.03;;
6358;SDS011;3212;51.460;11.868;2022-11-10T21:39:05;10.23;;;3.40;;
6358;SDS011;3212;51.460;11.868;2022-11-10T21:42:28;8.23;;;3.20;;
6358;SDS011;3212;51.460;11.868;2022-11-10T21:45:56;8.17;;;3.30;;
6358;SDS011;3212;51.460;11.868;2022-11-10T21:49:18;6.90;;;3.10;;